sensor_id;sensor_type;location;lat;lon;timestamp;P1;durP1;ratioP1;P2;durP2;ratioP2
30466;SDS011;17258;52.560;13.046;2023-07-02T00:08:54;0.90;;;0.90;;
30466;SDS011;17258;52.560;13.046;2023-07-02T00:18:55;2.20;;;0.90;;
30466;SDS011;17258;52.560;13.046;2023-07-02T00:28:56;0.90;;;0.90;;
30466;SDS011;17258;52.560;13.046;2023-07-02T00:38:57;1.40;;;1.20;;
30466;SDS011;17258;52.560;13.046;2023-07-02T00:48:58;1.42;;;1.33;;
30466;SDS011;17258;52.560;13.046;2023-07-02T00:59:00;1.38;;;1.27;;
30466;SDS011;17258;52.560;13.046;2023-07-02T01:09:02;2.27;;;2.07;;
30466;SDS011;17258;52.560;13.046;2023-07-02T01:19:09;2.38;;;2.20;;
30466;SDS011;17258;52.560;13.046;2023-07-02T01:29:19;2.63;;;2.10;;
30466;SDS011;17258;52.560;13.046;2023-07-02T01:39:20;2.30;;;2.10;;
30466;SDS011;17258;52.560;13.046;2023-07-02T01:49:21;8.10;;;2.22;;
30466;SDS011;17258;52.560;13.046;2023-07-02T01:59:21;2.17;;;2.03;;
30466;SDS011;17258;52.560;13.046;2023-07-02T02:09:22;2.63;;;2.10;;
30466;SDS011;17258;52.560;13.046;2023-07-02T02:19:23;1.73;;;1.63;;
30466;SDS011;17258;52.560;13.046;2023-07-02T02:29:24;2.03;;;1.93;;
30466;SDS011;17258;52.560;13.046;2023-07-02T02:39:24;1.70;;;1.60;;
30466;SDS011;17258;52.560;13.046;2023-07-02T02:49:25;2.20;;;1.93;;
30466;SDS011;17258;52.560;13.046;2023-07-02T02:59:26;1.60;;;1.50;;
30466;SDS011;17258;52.560;13.046;2023-07-02T03:09:26;2.27;;;1.80;;
30466;SDS011;17258;52.560;13.046;2023-07-02T03:19:27;4.57;;;1.70;;
30466;SDS011;17258;52.560;13.046;2023-07-02T03:29:27;1.90;;;1.47;;
30466;SDS011;17258;52.560;13.046;2023-07-02T03:39:28;2.63;;;1.70;;
30466;SDS011;17258;52.560;13.046;2023-07-02T03:49:29;2.03;;;1.57;;
30466;SDS011;17258;52.560;13.046;2023-07-02T03:59:29;1.40;;;1.27;;
30466;SDS011;17258;52.560;13.046;2023-07-02T04:09:34;2.08;;;1.50;;
30466;SDS011;17258;52.560;13.046;2023-07-02T04:19:34;3.47;;;1.57;;
30466;SDS011;17258;52.560;13.046;2023-07-02T04:29:35;1.60;;;1.40;;
30466;SDS011;17258;52.560;13.046;2023-07-02T04:39:36;1.60;;;1.50;;
30466;SDS011;17258;52.560;13.046;2023-07-02T04:49:36;2.37;;;1.50;;
30466;SDS011;17258;52.560;13.046;2023-07-02T04:59:38;2.17;;;1.60;;
30466;SDS011;17258;52.560;13.046;2023-07-02T05:09:39;1.33;;;1.23;;
30466;SDS011;17258;52.560;13.046;2023-07-02T05:19:42;2.28;;;1.92;;
30466;SDS011;17258;52.560;13.046;2023-07-02T05:29:43;3.28;;;1.65;;
30466;SDS011;17258;52.560;13.046;2023-07-02T05:39:44;1.70;;;1.60;;
30466;SDS011;17258;52.560;13.046;2023-07-02T05:49:45;1.73;;;1.63;;
30466;SDS011;17258;52.560;13.046;2023-07-02T05:59:45;2.65;;;1.55;;
30466;SDS011;17258;52.560;13.046;2023-07-02T06:09:46;2.30;;;1.77;;
30466;SDS011;17258;52.560;13.046;2023-07-02T06:19:49;2.23;;;1.87;;
30466;SDS011;17258;52.560;13.046;2023-07-02T06:29:53;3.60;;;1.70;;
30466;SDS011;17258;52.560;13.046;2023-07-02T06:39:59;15.85;;;14.60;;
30466;SDS011;17258;52.560;13.046;2023-07-02T06:50:00;15.80;;;14.88;;
30466;SDS011;17258;52.560;13.046;2023-07-02T07:00:01;16.25;;;15.25;;
30466;SDS011;17258;52.560;13.046;2023-07-02T07:10:03;16.10;;;15.20;;
30466;SDS011;17258;52.560;13.046;2023-07-02T07:20:05;16.20;;;15.27;;
30466;SDS011;17258;52.560;13.046;2023-07-02T07:30:06;7.30;;;6.75;;
30466;SDS011;17258;52.560;13.046;2023-07-02T07:40:07;3.50;;;3.30;;
30466;SDS011;17258;52.560;13.046;2023-07-02T07:50:11;13.48;;;12.68;;
30466;SDS011;17258;52.560;13.046;2023-07-02T08:00:15;14.35;;;13.45;;
30466;SDS011;17258;52.560;13.046;2023-07-02T08:10:17;16.75;;;15.75;;
30466;SDS011;17258;52.560;13.046;2023-07-02T08:20:17;16.57;;;15.60;;
30466;SDS011;17258;52.560;13.046;2023-07-02T08:30:24;17.20;;;16.10;;
30466;SDS011;17258;52.560;13.046;2023-07-02T08:40:27;17.77;;;16.02;;
30466;SDS011;17258;52.560;13.046;2023-07-02T08:50:28;17.77;;;16.60;;
30466;SDS011;17258;52.560;13.046;2023-07-02T09:00:31;18.15;;;16.95;;
30466;SDS011;17258;52.560;13.046;2023-07-02T09:10:36;19.05;;;17.50;;
30466;SDS011;17258;52.560;13.046;2023-07-02T09:20:40;18.00;;;16.85;;
30466;SDS011;17258;52.560;13.046;2023-07-02T09:30:53;19.58;;;17.90;;
30466;SDS011;17258;52.560;13.046;2023-07-02T09:40:57;18.83;;;17.38;;
30466;SDS011;17258;52.560;13.046;2023-07-02T09:50:59;19.92;;;18.52;;
30466;SDS011;17258;52.560;13.046;2023-07-02T10:01:00;19.10;;;17.73;;
30466;SDS011;17258;52.560;13.046;2023-07-02T10:11:11;18.17;;;16.77;;
30466;SDS011;17258;52.560;13.046;2023-07-02T10:21:14;19.67;;;18.30;;
30466;SDS011;17258;52.560;13.046;2023-07-02T10:31:17;19.98;;;18.50;;
30466;SDS011;17258;52.560;13.046;2023-07-02T10:41:25;19.80;;;17.98;;
30466;SDS011;17258;52.560;13.046;2023-07-02T10:51:33;21.13;;;19.48;;
30466;SDS011;17258;52.560;13.046;2023-07-02T11:01:34;21.50;;;19.45;;
30466;SDS011;17258;52.560;13.046;2023-07-02T11:11:37;20.30;;;18.70;;
30466;SDS011;17258;52.560;13.046;2023-07-02T11:21:54;20.98;;;19.15;;
30466;SDS011;17258;52.560;13.046;2023-07-02T11:32:04;21.67;;;19.60;;
30466;SDS011;17258;52.560;13.046;2023-07-02T11:42:09;19.20;;;17.80;;
30466;SDS011;17258;52.560;13.046;2023-07-02T11:52:13;21.00;;;19.13;;
30466;SDS011;17258;52.560;13.046;2023-07-02T12:02:15;21.33;;;19.73;;
30466;SDS011;17258;52.560;13.046;2023-07-02T12:12:16;21.58;;;19.67;;
30466;SDS011;17258;52.560;13.046;2023-07-02T12:22:20;20.83;;;19.23;;
30466;SDS011;17258;52.560;13.046;2023-07-02T12:32:26;21.83;;;20.03;;
30466;SDS011;17258;52.560;13.046;2023-07-02T12:42:30;20.52;;;19.02;;
30466;SDS011;17258;52.560;13.046;2023-07-02T12:52:33;19.97;;;18.03;;
30466;SDS011;17258;52.560;13.046;2023-07-02T13:02:34;20.27;;;18.70;;
30466;SDS011;17258;52.560;13.046;2023-07-02T13:12:41;21.77;;;19.67;;
30466;SDS011;17258;52.560;13.046;2023-07-02T13:22:45;22.77;;;20.88;;
30466;SDS011;17258;52.560;13.046;2023-07-02T13:32:51;21.67;;;19.88;;
30466;SDS011;17258;52.560;13.046;2023-07-02T13:42:58;22.05;;;20.23;;
30466;SDS011;17258;52.560;13.046;2023-07-02T13:52:59;20.15;;;18.75;;
30466;SDS011;17258;52.560;13.046;2023-07-02T14:03:03;20.75;;;19.23;;
30466;SDS011;17258;52.560;13.046;2023-07-02T14:13:04;21.88;;;19.73;;
30466;SDS011;17258;52.560;13.046;2023-07-02T14:23:08;21.67;;;19.40;;
30466;SDS011;17258;52.560;13.046;2023-07-02T14:33:11;22.25;;;20.45;;
30466;SDS011;17258;52.560;13.046;2023-07-02T14:43:13;20.05;;;18.52;;
30466;SDS011;17258;52.560;13.046;2023-07-02T14:53:17;20.23;;;18.63;;
30466;SDS011;17258;52.560;13.046;2023-07-02T15:03:19;20.42;;;18.83;;
30466;SDS011;17258;52.560;13.046;2023-07-02T15:13:24;19.92;;;18.30;;
30466;SDS011;17258;52.560;13.046;2023-07-02T15:23:25;20.70;;;19.07;;
30466;SDS011;17258;52.560;13.046;2023-07-02T15:33:27;19.42;;;18.13;;
30466;SDS011;17258;52.560;13.046;2023-07-02T15:43:28;20.52;;;19.02;;
30466;SDS011;17258;52.560;13.046;2023-07-02T15:53:29;20.73;;;19.03;;
30466;SDS011;17258;52.560;13.046;2023-07-02T16:03:39;19.08;;;17.75;;
30466;SDS011;17258;52.560;13.046;2023-07-02T16:13:40;17.17;;;16.08;;
30466;SDS011;17258;52.560;13.046;2023-07-02T16:23:42;19.27;;;17.98;;
30466;SDS011;17258;52.560;13.046;2023-07-02T16:33:46;19.58;;;18.08;;
30466;SDS011;17258;52.560;13.046;2023-07-02T16:43:47;16.10;;;14.88;;
30466;SDS011;17258;52.560;13.046;2023-07-02T16:53:50;18.48;;;16.60;;
30466;SDS011;17258;52.560;13.046;2023-07-02T17:03:53;18.60;;;17.30;;
30466;SDS011;17258;52.560;13.046;2023-07-02T17:13:57;18.00;;;16.83;;
30466;SDS011;17258;52.560;13.046;2023-07-02T17:23:57;16.93;;;15.47;;
30466;SDS011;17258;52.560;13.046;2023-07-02T17:33:58;19.17;;;17.67;;
30466;SDS011;17258;52.560;13.046;2023-07-02T17:44:05;18.15;;;16.50;;
30466;SDS011;17258;52.560;13.046;2023-07-02T17:54:12;18.10;;;16.80;;
30466;SDS011;17258;52.560;13.046;2023-07-02T18:04:16;13.48;;;12.23;;
30466;SDS011;17258;52.560;13.046;2023-07-02T18:14:23;12.02;;;11.07;;
30466;SDS011;17258;52.560;13.046;2023-07-02T18:24:27;8.00;;;7.40;;
30466;SDS011;17258;52.560;13.046;2023-07-02T18:34:39;7.47;;;6.78;;
30466;SDS011;17258;52.560;13.046;2023-07-02T18:44:40;5.65;;;4.30;;
30466;SDS011;17258;52.560;13.046;2023-07-02T18:54:41;4.13;;;3.30;;
30466;SDS011;17258;52.560;13.046;2023-07-02T19:04:48;4.25;;;3.75;;
30466;SDS011;17258;52.560;13.046;2023-07-02T19:14:57;3.05;;;2.75;;
30466;SDS011;17258;52.560;13.046;2023-07-02T19:24:58;4.50;;;2.75;;
30466;SDS011;17258;52.560;13.046;2023-07-02T19:34:59;3.73;;;3.23;;
30466;SDS011;17258;52.560;13.046;2023-07-02T19:44:59;2.73;;;2.50;;
30466;SDS011;17258;52.560;13.046;2023-07-02T19:55:02;4.18;;;2.88;;
30466;SDS011;17258;52.560;13.046;2023-07-02T20:05:08;3.15;;;2.45;;
30466;SDS011;17258;52.560;13.046;2023-07-02T20:15:09;3.90;;;2.70;;
30466;SDS011;17258;52.560;13.046;2023-07-02T20:25:10;4.65;;;3.63;;
30466;SDS011;17258;52.560;13.046;2023-07-02T20:35:11;9.23;;;2.63;;
30466;SDS011;17258;52.560;13.046;2023-07-02T20:45:12;2.53;;;2.33;;
30466;SDS011;17258;52.560;13.046;2023-07-02T20:55:13;2.97;;;2.65;;
30466;SDS011;17258;52.560;13.046;2023-07-02T21:05:13;4.53;;;3.03;;
30466;SDS011;17258;52.560;13.046;2023-07-02T21:15:14;2.67;;;2.27;;
30466;SDS011;17258;52.560;13.046;2023-07-02T21:25:15;2.47;;;2.27;;
30466;SDS011;17258;52.560;13.046;2023-07-02T21:35:15;3.50;;;2.90;;
30466;SDS011;17258;52.560;13.046;2023-07-02T21:45:16;2.53;;;2.33;;
30466;SDS011;17258;52.560;13.046;2023-07-02T21:55:17;3.63;;;2.77;;
30466;SDS011;17258;52.560;13.046;2023-07-02T22:05:17;2.57;;;2.20;;
30466;SDS011;17258;52.560;13.046;2023-07-02T22:15:18;4.37;;;3.40;;
30466;SDS011;17258;52.560;13.046;2023-07-02T22:25:19;3.53;;;2.47;;
30466;SDS011;17258;52.560;13.046;2023-07-02T22:35:19;4.77;;;2.80;;
30466;SDS011;17258;52.560;13.046;2023-07-02T22:45:20;7.73;;;2.67;;
30466;SDS011;17258;52.560;13.046;2023-07-02T22:55:21;3.17;;;2.42;;
30466;SDS011;17258;52.560;13.046;2023-07-02T23:05:22;3.30;;;2.97;;
30466;SDS011;17258;52.560;13.046;2023-07-02T23:15:25;3.10;;;2.80;;
30466;SDS011;17258;52.560;13.046;2023-07-02T23:25:26;2.67;;;2.47;;
30466;SDS011;17258;52.560;13.046;2023-07-02T23:35:27;4.47;;;2.97;;
30466;SDS011;17258;52.560;13.046;2023-07-02T23:45:28;5.03;;;2.43;;
30466;SDS011;17258;52.560;13.046;2023-07-02T23:55:29;6.20;;;2.83;;
